createdAt,value
2018-12-24T00:03:22.637Z,97637.01
2018-12-24T00:06:11.551Z,97635.78
2018-12-24T00:09:00.462Z,97646.65
2018-12-24T00:11:42.621Z,97646.56
2018-12-24T00:14:31.519Z,97655.48
2018-12-24T00:17:20.428Z,97666.91
2018-12-24T00:23:17.083Z,97677.52
2018-12-24T00:26:05.977Z,97609.15
2018-12-24T00:28:54.912Z,97676.16
2018-12-24T00:31:43.866Z,97531.80
2018-12-24T00:34:32.770Z,97693.68
2018-12-24T00:37:21.666Z,97689.88
2018-12-24T00:40:10.579Z,97615.11
2018-12-24T00:42:59.504Z,97694.67
2018-12-24T00:45:48.400Z,97702.14
2018-12-24T00:48:37.321Z,97704.95
2018-12-24T00:51:26.236Z,97716.25
2018-12-24T00:54:15.204Z,97719.16
2018-12-24T00:57:04.124Z,97729.20
2018-12-24T00:59:53.093Z,97729.44
2018-12-24T01:02:42.009Z,97742.77
2018-12-24T01:05:30.911Z,97729.14
2018-12-24T01:08:19.823Z,97779.59
2018-12-24T01:11:01.240Z,97792.08
2018-12-24T01:14:09.174Z,97800.59
2018-12-24T01:16:58.081Z,97802.41
2018-12-24T01:22:41.316Z,97823.03
2018-12-24T01:25:30.234Z,97820.99
2018-12-24T01:28:19.127Z,97823.72
2018-12-24T01:31:27.060Z,97834.27
2018-12-24T01:33:56.620Z,97563.16
2018-12-24T01:36:45.531Z,97827.72
2018-12-24T01:39:34.434Z,97560.29
2018-12-24T01:42:16.751Z,97867.13
2018-12-24T01:45:05.733Z,97865.63
2018-12-24T01:47:54.658Z,97874.27
2018-12-24T01:50:43.567Z,97884.41
2018-12-24T01:53:32.472Z,97859.56
2018-12-24T01:56:21.373Z,97903.56
2018-12-24T01:59:10.288Z,97910.55
2018-12-24T02:01:59.207Z,97919.02
2018-12-24T02:04:48.112Z,97921.66
2018-12-24T02:07:37.012Z,97902.59
2018-12-24T02:10:18.356Z,97934.97
2018-12-24T02:13:07.246Z,97790.16
2018-12-24T02:15:56.158Z,97948.50
2018-12-24T02:18:45.055Z,97743.41
2018-12-24T02:21:33.972Z,97941.88
2018-12-24T02:24:23.201Z,97746.70
2018-12-24T02:27:12.108Z,97959.49
2018-12-24T02:30:01.038Z,97757.72
2018-12-24T02:32:49.924Z,97966.92
2018-12-24T02:35:38.929Z,97977.45
2018-12-24T02:38:27.812Z,97974.76
2018-12-24T02:41:17.092Z,97858.48
2018-12-24T02:43:58.624Z,97737.84
2018-12-24T02:46:47.547Z,97991.03
2018-12-24T02:49:36.461Z,97996.67
2018-12-24T02:55:33.108Z,97743.23
2018-12-24T02:58:22.029Z,97987.76
2018-12-24T03:01:10.926Z,97991.95
2018-12-24T03:03:59.842Z,97999.27
2018-12-24T03:09:56.504Z,98015.48
2018-12-24T03:12:45.395Z,98025.53
2018-12-24T03:15:34.317Z,98024.35
2018-12-24T03:18:23.228Z,98028.28
2018-12-24T03:21:12.127Z,98032.16
2018-12-24T03:24:01.038Z,98033.27
2018-12-24T03:26:49.937Z,98049.74
2018-12-24T03:29:38.847Z,98055.39
2018-12-24T03:32:27.763Z,97777.80
2018-12-24T03:35:16.665Z,98065.78
2018-12-24T03:38:05.576Z,98063.41
2018-12-24T03:40:54.471Z,98079.05
2018-12-24T03:43:43.394Z,97994.45
2018-12-24T03:46:24.847Z,98083.20
2018-12-24T03:49:13.762Z,98112.45
2018-12-24T03:52:02.663Z,98092.09
2018-12-24T03:54:51.605Z,97926.89
2018-12-24T03:57:59.499Z,98089.98
2018-12-24T04:00:48.423Z,98094.96
2018-12-24T04:06:36.810Z,98096.75
2018-12-24T04:09:25.722Z,98097.58
2018-12-24T04:12:14.620Z,98108.78
2018-12-24T04:15:03.544Z,98109.74
2018-12-24T04:17:52.434Z,98124.02
2018-12-24T04:23:35.526Z,97904.23
2018-12-24T04:26:24.480Z,98084.50
2018-12-24T04:29:13.346Z,98146.19
2018-12-24T04:32:02.256Z,97982.40
2018-12-24T04:34:51.168Z,98163.18
2018-12-24T04:37:40.065Z,97952.86
2018-12-24T04:40:28.984Z,98167.27
2018-12-24T04:43:17.902Z,98176.02
2018-12-24T04:46:06.801Z,98182.78
2018-12-24T04:48:55.717Z,98110.80
2018-12-24T04:51:44.637Z,98205.14
2018-12-24T04:54:33.526Z,98216.30
2018-12-24T04:57:22.446Z,98223.86
2018-12-24T05:00:11.363Z,98227.25
2018-12-24T05:03:00.297Z,98240.64
2018-12-24T05:05:49.180Z,98249.30
2018-12-24T05:08:38.088Z,98258.42
2018-12-24T05:11:07.643Z,98238.05
2018-12-24T05:13:56.552Z,98284.73
2018-12-24T05:16:45.447Z,98012.30
2018-12-24T05:19:34.362Z,98302.02
2018-12-24T05:22:23.266Z,98312.95
2018-12-24T05:25:12.188Z,98315.67
2018-12-24T05:28:01.077Z,98327.48
2018-12-24T05:30:49.997Z,98321.50
2018-12-24T05:33:38.891Z,98329.94
2018-12-24T05:36:27.834Z,98335.66
2018-12-24T05:39:16.709Z,98342.79
2018-12-24T05:42:05.628Z,98203.79
2018-12-24T05:44:54.545Z,98359.00
2018-12-24T05:47:36.157Z,98367.02
2018-12-24T05:50:25.070Z,98370.58
2018-12-24T05:53:14.065Z,98389.23
2018-12-24T05:56:02.952Z,98390.77
2018-12-24T05:58:51.854Z,98392.56
2018-12-24T06:01:40.763Z,98400.13
2018-12-24T06:04:29.680Z,98417.85
2018-12-24T06:07:18.576Z,98422.97
2018-12-24T06:10:07.486Z,98427.27
2018-12-24T06:12:49.392Z,98432.66
2018-12-24T06:15:38.302Z,98448.13
2018-12-24T06:21:34.963Z,98456.43
2018-12-24T06:24:24.125Z,98470.94
2018-12-24T06:27:13.052Z,98307.06
2018-12-24T06:30:01.950Z,98319.56
2018-12-24T06:32:50.856Z,98485.32
2018-12-24T06:35:39.764Z,98488.36
2018-12-24T06:38:28.672Z,98508.03
2018-12-24T06:41:17.642Z,98519.62
2018-12-24T06:44:07.105Z,98524.47
2018-12-24T06:46:50.021Z,98520.55
2018-12-24T06:49:38.934Z,98529.48
2018-12-24T06:52:27.829Z,98536.42
2018-12-24T06:55:16.740Z,98540.12
2018-12-24T06:58:05.635Z,98521.42
2018-12-24T07:00:54.566Z,98554.16
2018-12-24T07:03:43.472Z,98564.21
2018-12-24T07:06:32.382Z,98566.63
2018-12-24T07:09:21.268Z,98416.87
2018-12-24T07:12:02.911Z,98588.41
2018-12-24T07:14:51.811Z,98591.05
2018-12-24T07:17:40.730Z,98602.86
2018-12-24T07:20:29.630Z,98605.11
2018-12-24T07:23:18.549Z,98609.00
2018-12-24T07:29:15.199Z,98628.08
2018-12-24T07:32:04.086Z,98644.34
2018-12-24T07:34:54.015Z,98649.34
2018-12-24T07:37:42.911Z,98658.83
2018-12-24T07:40:31.827Z,98659.60
2018-12-24T07:43:20.724Z,98666.03
2018-12-24T07:46:09.648Z,98671.05
2018-12-24T07:48:58.545Z,98673.76
2018-12-24T07:54:41.471Z,98687.49
2018-12-24T07:57:30.389Z,98694.31
2018-12-24T08:00:19.302Z,98696.44
2018-12-24T08:03:08.193Z,98693.12
2018-12-24T08:05:57.197Z,98699.56
2018-12-24T08:08:46.117Z,98691.42
2018-12-24T08:11:35.080Z,98701.88
2018-12-24T08:14:17.090Z,98704.55
2018-12-24T08:17:05.981Z,98714.02
2018-12-24T08:19:54.877Z,98715.73
2018-12-24T08:22:43.796Z,98414.78
2018-12-24T08:25:32.691Z,98727.23
2018-12-24T08:28:21.622Z,98734.20
2018-12-24T08:31:10.516Z,98729.13
2018-12-24T08:33:59.434Z,98738.72
2018-12-24T08:36:48.330Z,98749.09
2018-12-24T08:42:31.319Z,98758.42
2018-12-24T08:45:39.254Z,98765.73
2018-12-24T08:48:28.176Z,98766.22
2018-12-24T08:51:17.086Z,98775.07
2018-12-24T08:54:06.096Z,98785.91
2018-12-24T08:56:55.021Z,98800.12
2018-12-24T08:59:43.930Z,98813.73
2018-12-24T09:02:32.826Z,98818.09
2018-12-24T09:05:21.735Z,98816.00
2018-12-24T09:08:10.636Z,98555.58
2018-12-24T09:10:59.559Z,98819.94
2018-12-24T09:13:48.447Z,98826.05
2018-12-24T09:16:29.944Z,98822.53
2018-12-24T09:19:18.858Z,98827.92
2018-12-24T09:22:07.760Z,98690.02
2018-12-24T09:24:56.670Z,98839.81
2018-12-24T09:27:45.562Z,98842.32
2018-12-24T09:30:34.470Z,98849.54
2018-12-24T09:33:23.429Z,98854.17
2018-12-24T09:36:12.362Z,98865.45
2018-12-24T09:39:20.281Z,98869.41
2018-12-24T09:42:09.205Z,98872.72
2018-12-24T09:44:59.131Z,98744.13
2018-12-24T09:47:48.747Z,98872.00
2018-12-24T09:50:37.655Z,98883.80
2018-12-24T09:53:26.603Z,98900.08
2018-12-24T09:56:15.475Z,98900.94
2018-12-24T09:59:04.437Z,98908.21
2018-12-24T10:01:53.704Z,98911.75
2018-12-24T10:04:42.667Z,98916.20
2018-12-24T10:10:40.959Z,98930.80
2018-12-24T10:13:29.874Z,98940.92
2018-12-24T10:16:18.778Z,98952.53
2018-12-24T10:19:07.663Z,98956.28
2018-12-24T10:21:56.577Z,98883.22
2018-12-24T10:24:45.475Z,98974.33
2018-12-24T10:27:34.393Z,98982.73
2018-12-24T10:30:23.289Z,98746.20
2018-12-24T10:33:12.211Z,99001.67
2018-12-24T10:39:08.903Z,98992.99
2018-12-24T10:41:57.799Z,98996.07
2018-12-24T10:44:46.718Z,98966.09
2018-12-24T10:47:35.610Z,98996.37
2018-12-24T10:50:24.519Z,98992.78
2018-12-24T10:53:06.216Z,98999.09
2018-12-24T10:55:55.120Z,99005.72
2018-12-24T10:58:44.062Z,98994.89
2018-12-24T11:01:33.247Z,99001.92
2018-12-24T11:04:22.163Z,99009.05
2018-12-24T11:07:11.069Z,99010.75
2018-12-24T11:09:59.978Z,99013.52
2018-12-24T11:12:48.880Z,99003.11
2018-12-24T11:15:37.770Z,99003.33
2018-12-24T11:18:26.699Z,99005.45
2018-12-24T11:21:15.585Z,99000.58
2018-12-24T11:24:04.539Z,99023.48
2018-12-24T11:26:53.440Z,99012.92
2018-12-24T11:29:42.349Z,99019.02
2018-12-24T11:32:31.243Z,99018.73
2018-12-24T11:35:20.152Z,98835.33
2018-12-24T11:38:09.073Z,99027.89
2018-12-24T11:40:57.998Z,98967.16
2018-12-24T11:43:46.892Z,99028.55
2018-12-24T11:46:35.815Z,99028.70
2018-12-24T11:49:24.701Z,99029.17
2018-12-24T11:52:13.614Z,98753.38
2018-12-24T11:54:55.742Z,99021.82
2018-12-24T11:57:44.645Z,98861.41
2018-12-24T12:00:33.554Z,99028.33
2018-12-24T12:03:22.464Z,99032.47
2018-12-24T12:06:19.530Z,99033.52
2018-12-24T12:09:02.005Z,99035.09
2018-12-24T12:11:50.920Z,99043.91
2018-12-24T12:14:39.809Z,99039.19
2018-12-24T12:17:28.717Z,98962.82
2018-12-24T12:20:17.612Z,99042.66
2018-12-24T12:23:06.516Z,99042.25
2018-12-24T12:29:03.193Z,99053.86
2018-12-24T12:31:52.085Z,99066.13
2018-12-24T12:34:41.007Z,99071.23
2018-12-24T12:37:29.922Z,99073.79
2018-12-24T12:40:18.817Z,99080.69
2018-12-24T12:43:07.798Z,99091.27
2018-12-24T12:45:56.686Z,99100.38
2018-12-24T12:48:45.602Z,99103.71
2018-12-24T12:51:34.483Z,99109.58
2018-12-24T12:54:23.428Z,99131.33
2018-12-24T12:57:04.830Z,99136.42
2018-12-24T12:59:54.727Z,99141.42
2018-12-24T13:02:43.641Z,98891.06
2018-12-24T13:05:32.561Z,98932.33
2018-12-24T13:08:21.479Z,99160.06
2018-12-24T13:11:10.372Z,98910.61
2018-12-24T13:13:59.289Z,99164.15
2018-12-24T13:17:07.227Z,99163.73
2018-12-24T13:19:56.140Z,99181.49
2018-12-24T13:22:45.044Z,99132.21
2018-12-24T13:25:33.946Z,99189.28
2018-12-24T13:28:22.863Z,98989.27
2018-12-24T13:31:11.754Z,99188.06
2018-12-24T13:34:00.663Z,99191.68
2018-12-24T13:36:49.559Z,99197.33
2018-12-24T13:39:38.490Z,99197.64
2018-12-24T13:42:27.372Z,99203.61
2018-12-24T13:45:23.932Z,99206.91
2018-12-24T13:48:12.828Z,99229.17
2018-12-24T13:51:01.733Z,98962.02
2018-12-24T13:53:43.327Z,99223.03
2018-12-24T13:56:32.235Z,99220.00
2018-12-24T13:59:23.532Z,99224.06
2018-12-24T14:02:11.754Z,99230.53
2018-12-24T14:05:00.682Z,99231.80
2018-12-24T14:07:49.569Z,99228.28
2018-12-24T14:10:38.481Z,99233.00
2018-12-24T14:13:27.370Z,99179.38
2018-12-24T14:16:16.838Z,99240.48
2018-12-24T14:19:06.888Z,99246.51
2018-12-24T14:21:55.796Z,98996.05
2018-12-24T14:24:44.688Z,99261.59
2018-12-24T14:27:33.599Z,99269.86
2018-12-24T14:30:22.489Z,98988.92
2018-12-24T14:33:11.477Z,99277.51
2018-12-24T14:36:00.372Z,99280.55
2018-12-24T14:38:49.290Z,99268.16
2018-12-24T14:41:38.179Z,99268.98
2018-12-24T14:47:21.305Z,99278.92
2018-12-24T14:50:10.316Z,99289.50
2018-12-24T14:52:59.200Z,99305.69
2018-12-24T14:55:40.744Z,99312.63
2018-12-24T14:58:29.648Z,99319.92
2018-12-24T15:01:18.612Z,99317.19
2018-12-24T15:04:07.495Z,99188.89
2018-12-24T15:06:56.419Z,99334.17
2018-12-24T15:09:45.321Z,99327.67
2018-12-24T15:12:34.207Z,99330.11
2018-12-24T15:15:16.245Z,99345.16
2018-12-24T15:18:05.124Z,99348.44
2018-12-24T15:21:13.172Z,99358.41
2018-12-24T15:24:02.409Z,99035.53
2018-12-24T15:26:51.310Z,99365.84
2018-12-24T15:29:40.199Z,99092.38
2018-12-24T15:32:29.133Z,99368.02
2018-12-24T15:35:18.107Z,99369.98
2018-12-24T15:38:07.029Z,99368.31
2018-12-24T15:40:55.924Z,99383.24
2018-12-24T15:43:44.827Z,99389.35
2018-12-24T15:46:33.726Z,99393.69
2018-12-24T15:49:22.641Z,99394.48
2018-12-24T15:52:11.537Z,99400.66
2018-12-24T15:54:53.676Z,99402.49
2018-12-24T15:57:42.603Z,99408.38
2018-12-24T16:00:31.508Z,99405.38
2018-12-24T16:03:20.414Z,99412.36
2018-12-24T16:06:09.309Z,99417.15
2018-12-24T16:08:58.218Z,99417.19
2018-12-24T16:11:47.125Z,99418.63
2018-12-24T16:14:36.073Z,99418.53
2018-12-24T16:17:24.982Z,99426.02
2018-12-24T16:20:13.925Z,99393.30
2018-12-24T16:23:02.859Z,99418.67
2018-12-24T16:25:51.782Z,99428.77
2018-12-24T16:28:40.704Z,99434.64
2018-12-24T16:31:29.612Z,99429.47
2018-12-24T16:34:18.537Z,99431.86
2018-12-24T16:40:01.903Z,99180.64
2018-12-24T16:42:50.889Z,99426.03
2018-12-24T16:45:39.812Z,99417.91
2018-12-24T16:48:28.736Z,99428.83
2018-12-24T16:51:17.639Z,99428.23
2018-12-24T16:54:06.555Z,99439.75
2018-12-24T16:56:48.010Z,99260.80
2018-12-24T16:59:36.932Z,99458.24
2018-12-24T17:02:26.127Z,99465.32
2018-12-24T17:05:15.034Z,99474.33
2018-12-24T17:08:04.032Z,99478.43
2018-12-24T17:10:52.971Z,99468.71
2018-12-24T17:13:41.868Z,99139.95
2018-12-24T17:16:23.291Z,99481.95
2018-12-24T17:19:31.242Z,99292.99
2018-12-24T17:22:20.130Z,99488.64
2018-12-24T17:25:09.054Z,99409.62
2018-12-24T17:27:57.954Z,99479.66
2018-12-24T17:30:46.887Z,99146.78
2018-12-24T17:33:35.796Z,99476.02
2018-12-24T17:36:24.735Z,99175.25
2018-12-24T17:39:13.629Z,99464.20
2018-12-24T17:42:02.539Z,99481.89
2018-12-24T17:44:51.446Z,99501.06
2018-12-24T17:47:59.379Z,99515.25
2018-12-24T17:50:48.282Z,99533.23
2018-12-24T17:53:37.218Z,99519.41
2018-12-24T17:56:26.120Z,99517.50
2018-12-24T17:59:15.040Z,99517.72
2018-12-24T18:02:03.941Z,99524.16
2018-12-24T18:04:52.855Z,99530.65
2018-12-24T18:07:41.752Z,99531.88
2018-12-24T18:10:30.667Z,99536.08
2018-12-24T18:13:19.570Z,99545.86
2018-12-24T18:16:08.490Z,99555.12
2018-12-24T18:18:50.072Z,99548.53
2018-12-24T18:21:38.988Z,99403.73
2018-12-24T18:24:27.883Z,99556.98
2018-12-24T18:27:16.802Z,99559.43
2018-12-24T18:30:26.616Z,99565.70
2018-12-24T18:33:15.544Z,99568.36
2018-12-24T18:36:04.456Z,99567.42
2018-12-24T18:38:53.354Z,99560.60
2018-12-24T18:41:42.277Z,99548.38
2018-12-24T18:44:50.288Z,99542.04
2018-12-24T18:47:39.184Z,99544.38
2018-12-24T18:50:28.109Z,99502.64
2018-12-24T18:53:17.008Z,99545.19
2018-12-24T18:55:58.395Z,99551.09
2018-12-24T18:58:47.330Z,99551.89
2018-12-24T19:01:36.233Z,99554.66
2018-12-24T19:04:25.172Z,99569.19
2018-12-24T19:07:14.057Z,99567.47
2018-12-24T19:10:02.988Z,99558.87
2018-12-24T19:12:51.884Z,99549.53
2018-12-24T19:15:40.804Z,99556.51
2018-12-24T19:18:29.700Z,99554.17
2018-12-24T19:21:18.629Z,99552.99
2018-12-24T19:24:07.527Z,99551.73
2018-12-24T19:26:56.445Z,99547.34
2018-12-24T19:29:45.356Z,99542.02
2018-12-24T19:32:34.291Z,99541.83
2018-12-24T19:35:23.228Z,99276.97
2018-12-24T19:38:12.151Z,99531.92
2018-12-24T19:41:01.061Z,99539.02
2018-12-24T19:43:49.987Z,99530.74
2018-12-24T19:46:38.886Z,99527.78
2018-12-24T19:49:27.820Z,99523.31
2018-12-24T19:52:16.717Z,99527.91
2018-12-24T19:55:05.657Z,99526.67
2018-12-24T19:57:47.861Z,99524.78
2018-12-24T20:00:37.098Z,99524.31
2018-12-24T20:03:25.994Z,99523.27
2018-12-24T20:09:30.145Z,99527.13
2018-12-24T20:12:19.065Z,99228.56
2018-12-24T20:15:07.967Z,99547.81
2018-12-24T20:17:58.311Z,99552.73
2018-12-24T20:20:47.514Z,99545.95
2018-12-24T20:23:36.427Z,99362.67
2018-12-24T20:26:25.328Z,99554.73
2018-12-24T20:29:14.247Z,99373.41
2018-12-24T20:32:03.146Z,99559.02
2018-12-24T20:35:11.093Z,99556.69
2018-12-24T20:37:59.998Z,99558.70
2018-12-24T20:40:48.911Z,99566.84
2018-12-24T20:43:37.817Z,99579.63
2018-12-24T20:46:26.741Z,99248.17
2018-12-24T20:49:15.630Z,99599.93
2018-12-24T20:52:04.540Z,99608.13
2018-12-24T20:54:53.743Z,99564.23
2018-12-24T20:57:35.973Z,99613.94
2018-12-24T21:00:24.875Z,99521.99
2018-12-24T21:03:13.783Z,99603.98
2018-12-24T21:06:02.713Z,99608.84
2018-12-24T21:08:51.617Z,99605.82
2018-12-24T21:11:40.531Z,99609.34
2018-12-24T21:14:29.447Z,99617.80
2018-12-24T21:17:18.349Z,99379.20
2018-12-24T21:20:27.108Z,99611.42
2018-12-24T21:23:16.005Z,99604.85
2018-12-24T21:26:04.928Z,99605.21
2018-12-24T21:28:53.835Z,99611.16
2018-12-24T21:31:42.762Z,99605.14
2018-12-24T21:34:31.661Z,99604.95
2018-12-24T21:37:20.578Z,99596.62
2018-12-24T21:40:09.464Z,99595.58
2018-12-24T21:42:58.385Z,99601.53
2018-12-24T21:45:47.275Z,99602.93
2018-12-24T21:48:36.189Z,99602.16
2018-12-24T21:51:25.144Z,99600.22
2018-12-24T21:54:14.060Z,99592.23
2018-12-24T22:00:24.371Z,99594.08
2018-12-24T22:03:13.276Z,99252.18
2018-12-24T22:06:02.190Z,99601.33
2018-12-24T22:08:51.084Z,99393.32
2018-12-24T22:11:40.003Z,99592.78
2018-12-24T22:14:28.903Z,99599.74
2018-12-24T22:17:17.808Z,99602.13
2018-12-24T22:20:06.726Z,99599.77
2018-12-24T22:22:48.830Z,99599.88
2018-12-24T22:25:37.715Z,99607.53
2018-12-24T22:28:45.647Z,99604.77
2018-12-24T22:31:34.555Z,99607.64
2018-12-24T22:34:23.456Z,99613.16
2018-12-24T22:37:12.353Z,99436.33
2018-12-24T22:40:13.114Z,99602.48
2018-12-24T22:42:51.924Z,99594.32
2018-12-24T22:45:40.816Z,99594.93
2018-12-24T22:48:31.209Z,99330.13
2018-12-24T22:51:20.346Z,99606.31
2018-12-24T22:54:09.286Z,99600.97
2018-12-24T22:56:58.176Z,99598.85
2018-12-24T22:59:47.443Z,99594.02
2018-12-24T23:02:36.340Z,99282.63
2018-12-24T23:05:25.259Z,99588.12
2018-12-24T23:08:14.148Z,99581.73
2018-12-24T23:13:57.672Z,99577.61
2018-12-24T23:16:46.590Z,99577.38
2018-12-24T23:19:35.519Z,99573.47
2018-12-24T23:22:17.415Z,99580.18
2018-12-24T23:25:06.325Z,99585.22
2018-12-24T23:27:55.230Z,99584.19
2018-12-24T23:30:44.119Z,99580.34
2018-12-24T23:33:33.060Z,99484.41
2018-12-24T23:36:21.954Z,99578.86
2018-12-24T23:39:10.876Z,99574.90
2018-12-24T23:41:59.765Z,99578.30
2018-12-24T23:44:48.669Z,99583.63
2018-12-24T23:50:45.394Z,99578.94
2018-12-24T23:53:53.350Z,99573.28
2018-12-24T23:56:42.258Z,99577.03
2018-12-24T23:59:31.186Z,99285.81
